Time,TemperatureF,DewpointF,PressureIn,WindDirection,WindDirectionDegrees,WindSpeedMPH,WindSpeedGustMPH,Humidity,HourlyPrecipIn,Conditions,Clouds,dailyrainin,SoftwareType,DateUTC
2013-08-11 00:00:00,36.0,28.0,-100.00,South,186,11.0,15.0,74,-99.99,,,-99.99,,2013-08-11 06:00:00,
2013-08-11 00:49:00,36.0,28.0,-100.00,South,186,11.0,15.0,74,-99.99,,,-99.99,,2013-08-11 06:49:00,
2013-08-11 00:57:00,36.0,28.0,-100.00,South,186,11.0,15.0,74,-99.99,,,-99.99,,2013-08-11 06:57:00,
2013-08-11 01:00:00,36.0,28.0,-100.00,SSW,194,13.0,18.0,72,-99.99,,,-99.99,,2013-08-11 07:00:00,
2013-08-11 01:47:00,36.0,28.0,-100.00,SSW,194,13.0,18.0,72,-99.99,,,-99.99,,2013-08-11 07:47:00,
2013-08-11 01:56:00,36.0,28.0,-100.00,SSW,194,13.0,18.0,72,-99.99,,,-99.99,,2013-08-11 07:56:00,
2013-08-11 02:00:00,34.0,30.0,-100.00,South,188,15.0,20.0,83,-99.99,,,-99.99,,2013-08-11 08:00:00,
2013-08-11 02:49:00,34.0,30.0,-100.00,South,188,15.0,20.0,83,-99.99,,,-99.99,,2013-08-11 08:49:00,
2013-08-11 02:59:00,34.0,30.0,-100.00,South,188,15.0,20.0,83,-99.99,,,-99.99,,2013-08-11 08:59:00,
2013-08-11 03:00:00,34.0,30.0,-100.00,South,170,16.0,22.0,88,-99.99,,,-99.99,,2013-08-11 09:00:00,
2013-08-11 03:44:00,34.0,30.0,-100.00,South,170,16.0,22.0,88,-99.99,,,-99.99,,2013-08-11 09:44:00,
2013-08-11 04:00:00,34.0,30.0,-100.00,South,173,15.0,20.0,88,-99.99,,,-99.99,,2013-08-11 10:00:00,
2013-08-11 04:47:00,34.0,30.0,-100.00,South,173,15.0,20.0,88,-99.99,,,-99.99,,2013-08-11 10:47:00,
2013-08-11 04:57:00,34.0,30.0,-100.00,South,173,15.0,20.0,88,-99.99,,,-99.99,,2013-08-11 10:57:00,
2013-08-11 05:00:00,33.0,31.0,-100.00,South,190,10.0,16.0,91,-99.99,,,-99.99,,2013-08-11 11:00:00,
2013-08-11 05:59:00,33.0,31.0,-100.00,South,190,10.0,16.0,91,-99.99,,,-99.99,,2013-08-11 11:59:00,
2013-08-11 06:00:00,34.0,29.0,-100.00,SW,220,7.0,10.0,82,-99.99,,,-99.99,,2013-08-11 12:00:00,
2013-08-11 06:47:00,34.0,29.0,-100.00,SW,220,7.0,10.0,82,-99.99,,,-99.99,,2013-08-11 12:47:00,
2013-08-11 06:56:00,34.0,29.0,-100.00,SW,220,7.0,10.0,82,-99.99,,,-99.99,,2013-08-11 12:56:00,
2013-08-11 07:48:00,34.0,28.0,-100.00,West,274,7.0,8.0,77,-99.99,,,-99.99,,2013-08-11 13:48:00,
2013-08-11 07:58:00,34.0,28.0,-100.00,West,274,7.0,8.0,77,-99.99,,,-99.99,,2013-08-11 13:58:00,
2013-08-11 08:00:00,35.0,28.0,-100.00,NW,314,8.0,11.0,77,-99.99,,,-99.99,,2013-08-11 14:00:00,
2013-08-11 08:49:00,35.0,28.0,-100.00,NW,314,8.0,11.0,77,-99.99,,,-99.99,,2013-08-11 14:49:00,
2013-08-11 08:57:00,35.0,28.0,-100.00,NW,314,8.0,11.0,77,-99.99,,,-99.99,,2013-08-11 14:57:00,
2013-08-11 09:00:00,36.0,29.0,-100.00,North,352,9.0,14.0,75,-99.99,,,-99.99,,2013-08-11 15:00:00,
2013-08-11 09:49:00,36.0,29.0,-100.00,North,352,9.0,14.0,75,-99.99,,,-99.99,,2013-08-11 15:49:00,
2013-08-11 10:00:00,39.0,30.0,-100.00,North,9,6.0,10.0,69,-99.99,,,-99.99,,2013-08-11 16:00:00,
2013-08-11 10:47:00,39.0,30.0,-100.00,North,9,6.0,10.0,69,-99.99,,,-99.99,,2013-08-11 16:47:00,
2013-08-11 10:58:00,39.0,30.0,-100.00,North,9,6.0,10.0,69,-99.99,,,-99.99,,2013-08-11 16:58:00,
2013-08-11 11:00:00,40.0,31.0,-100.00,NNW,347,4.0,9.0,70,-99.99,,,-99.99,,2013-08-11 17:00:00,
2013-08-11 11:47:00,40.0,31.0,-100.00,NNW,347,4.0,9.0,70,-99.99,,,-99.99,,2013-08-11 17:47:00,
2013-08-11 11:57:00,40.0,31.0,-100.00,NNW,347,4.0,9.0,70,-99.99,,,-99.99,,2013-08-11 17:57:00,
2013-08-11 12:00:00,42.0,31.0,-100.00,North,357,4.0,11.0,64,-99.99,,,-99.99,,2013-08-11 18:00:00,
2013-08-11 12:49:00,42.0,31.0,-100.00,North,357,4.0,11.0,64,-99.99,,,-99.99,,2013-08-11 18:49:00,
2013-08-11 12:56:00,42.0,31.0,-100.00,North,357,4.0,11.0,64,-99.99,,,-99.99,,2013-08-11 18:56:00,
2013-08-11 13:00:00,43.0,30.0,-100.00,NW,326,4.0,9.0,58,-99.99,,,-99.99,,2013-08-11 19:00:00,
2013-08-11 13:51:00,43.0,30.0,-100.00,NW,326,4.0,9.0,58,-99.99,,,-99.99,,2013-08-11 19:51:00,
2013-08-11 14:50:00,45.0,28.0,-100.00,WNW,282,4.0,10.0,51,-99.99,,,-99.99,,2013-08-11 20:50:00,
2013-08-11 14:58:00,45.0,28.0,-100.00,WNW,282,4.0,10.0,51,-99.99,,,-99.99,,2013-08-11 20:58:00,
2013-08-11 15:00:00,46.0,29.0,-100.00,West,280,4.0,10.0,50,-99.99,,,-99.99,,2013-08-11 21:00:00,
2013-08-11 15:49:00,46.0,29.0,-100.00,West,280,4.0,10.0,50,-99.99,,,-99.99,,2013-08-11 21:49:00,
2013-08-11 15:58:00,46.0,29.0,-100.00,West,280,4.0,10.0,50,-99.99,,,-99.99,,2013-08-11 21:58:00,
2013-08-11 16:00:00,46.0,30.0,-100.00,WNW,284,6.0,11.0,54,-99.99,,,-99.99,,2013-08-11 22:00:00,
2013-08-11 16:47:00,46.0,30.0,-100.00,WNW,284,6.0,11.0,54,-99.99,,,-99.99,,2013-08-11 22:47:00,
2013-08-11 16:57:00,46.0,30.0,-100.00,WNW,284,6.0,11.0,54,-99.99,,,-99.99,,2013-08-11 22:57:00,
2013-08-11 17:00:00,44.0,32.0,-100.00,West,275,5.0,11.0,63,-99.99,,,-99.99,,2013-08-11 23:00:00,
2013-08-11 17:57:00,44.0,32.0,-100.00,West,275,5.0,11.0,63,-99.99,,,-99.99,,2013-08-11 23:57:00,
2013-08-11 18:00:00,43.0,33.0,-100.00,South,176,8.0,17.0,64,-99.99,,,-99.99,,2013-08-12 00:00:00,
2013-08-11 18:58:00,43.0,33.0,-100.00,South,176,8.0,17.0,64,-99.99,,,-99.99,,2013-08-12 00:58:00,
2013-08-11 19:48:00,41.0,32.0,-100.00,West,276,4.0,9.0,71,-99.99,,,-99.99,,2013-08-12 01:48:00,
2013-08-11 20:00:00,41.0,32.0,-100.00,NNE,14,4.0,11.0,69,-99.99,,,-99.99,,2013-08-12 02:00:00,
2013-08-11 20:49:00,41.0,32.0,-100.00,NNE,14,4.0,11.0,69,-99.99,,,-99.99,,2013-08-12 02:49:00,
2013-08-11 20:59:00,41.0,32.0,-100.00,NNE,14,4.0,11.0,69,-99.99,,,-99.99,,2013-08-12 02:59:00,
2013-08-11 21:00:00,40.0,32.0,-100.00,NE,56,4.0,10.0,73,-99.99,,,-99.99,,2013-08-12 03:00:00,
2013-08-11 21:48:00,40.0,32.0,-100.00,NE,56,4.0,10.0,73,-99.99,,,-99.99,,2013-08-12 03:48:00,
2013-08-11 22:00:00,40.0,31.0,-100.00,ESE,112,1.0,6.0,69,-99.99,,,-99.99,,2013-08-12 04:00:00,
2013-08-11 22:43:00,40.0,31.0,-100.00,ESE,112,1.0,6.0,69,-99.99,,,-99.99,,2013-08-12 04:43:00,
2013-08-11 22:52:00,40.0,31.0,-100.00,ESE,112,1.0,6.0,69,-99.99,,,-99.99,,2013-08-12 04:52:00,
2013-08-11 23:00:00,40.0,29.0,-100.00,ESE,112,2.0,6.0,63,-99.99,,,-99.99,,2013-08-12 05:00:00,
2013-08-11 23:43:00,40.0,29.0,-100.00,ESE,112,2.0,6.0,63,-99.99,,,-99.99,,2013-08-12 05:43:00,
2013-08-11 23:52:00,40.0,29.0,-100.00,ESE,112,2.0,6.0,63,-99.99,,,-99.99,,2013-08-12 05:52:00,